sensor_id;sensor_type;location;lat;lon;timestamp;pressure;altitude;pressure_sealevel;temperature;humidity
36664;BME280;53333;51.976;20.144;2022-12-07T00:02:00;99499.66;;;3.43;75.86
36664;BME280;53333;51.976;20.144;2022-12-07T00:04:36;99498.81;;;3.41;75.86
36664;BME280;53333;51.976;20.144;2022-12-07T00:07:10;99486.59;;;3.39;75.67
36664;BME280;53333;51.976;20.144;2022-12-07T00:09:46;99487.47;;;3.38;75.75
36664;BME280;53333;51.976;20.144;2022-12-07T00:12:20;99487.53;;;3.36;75.63
36664;BME280;53333;51.976;20.144;2022-12-07T00:14:54;99490.13;;;3.38;75.58
36664;BME280;53333;51.976;20.144;2022-12-07T00:17:29;99484.94;;;3.35;75.65
36664;BME280;53333;51.976;20.144;2022-12-07T00:20:05;99483.41;;;3.27;75.68
36664;BME280;53333;51.976;20.144;2022-12-07T00:22:42;99482.56;;;3.25;75.80
36664;BME280;53333;51.976;20.144;2022-12-07T00:25:18;99479.06;;;3.25;75.73
36664;BME280;53333;51.976;20.144;2022-12-07T00:27:52;99479.91;;;3.25;75.79
36664;BME280;53333;51.976;20.144;2022-12-07T00:30:29;99481.69;;;3.25;75.70
36664;BME280;53333;51.976;20.144;2022-12-07T00:33:03;99482.56;;;3.25;75.72
36664;BME280;53333;51.976;20.144;2022-12-07T00:35:36;99482.56;;;3.25;75.75
36664;BME280;53333;51.976;20.144;2022-12-07T00:38:09;99485.16;;;3.27;75.55
36664;BME280;53333;51.976;20.144;2022-12-07T00:40:54;99489.50;;;3.30;75.58
36664;BME280;53333;51.976;20.144;2022-12-07T00:43:27;99491.91;;;3.37;75.37
36664;BME280;53333;51.976;20.144;2022-12-07T00:46:01;99489.63;;;3.25;75.40
36664;BME280;53333;51.976;20.144;2022-12-07T00:48:34;99492.34;;;3.22;75.48
36664;BME280;53333;51.976;20.144;2022-12-07T00:51:10;99497.66;;;3.20;75.58
36664;BME280;53333;51.976;20.144;2022-12-07T00:53:44;99494.19;;;3.20;75.58
36664;BME280;53333;51.976;20.144;2022-12-07T00:56:21;99494.22;;;3.18;75.68
36664;BME280;53333;51.976;20.144;2022-12-07T00:58:56;99493.41;;;3.16;75.58
36664;BME280;53333;51.976;20.144;2022-12-07T01:01:35;99490.91;;;3.12;75.78
36664;BME280;53333;51.976;20.144;2022-12-07T01:04:09;99489.13;;;3.12;75.75
36664;BME280;53333;51.976;20.144;2022-12-07T01:06:42;99483.84;;;3.12;75.70
36664;BME280;53333;51.976;20.144;2022-12-07T01:09:16;99489.97;;;3.13;75.69
36664;BME280;53333;51.976;20.144;2022-12-07T01:11:51;99486.47;;;3.12;75.76
36664;BME280;53333;51.976;20.144;2022-12-07T01:14:24;99481.25;;;3.11;75.48
36664;BME280;53333;51.976;20.144;2022-12-07T01:16:58;99484.84;;;3.08;75.65
36664;BME280;53333;51.976;20.144;2022-12-07T01:19:31;99479.56;;;3.08;75.72
36664;BME280;53333;51.976;20.144;2022-12-07T01:22:05;99476.94;;;3.08;75.70
36664;BME280;53333;51.976;20.144;2022-12-07T01:24:38;99475.19;;;3.07;75.54
36664;BME280;53333;51.976;20.144;2022-12-07T01:27:13;99477.88;;;3.05;75.70
36664;BME280;53333;51.976;20.144;2022-12-07T01:29:47;99468.25;;;3.03;75.56
36664;BME280;53333;51.976;20.144;2022-12-07T01:32:20;99471.81;;;3.02;75.59
36664;BME280;53333;51.976;20.144;2022-12-07T01:34:54;99475.41;;;2.99;75.55
36664;BME280;53333;51.976;20.144;2022-12-07T01:37:27;99478.09;;;2.98;75.77
36664;BME280;53333;51.976;20.144;2022-12-07T01:40:02;99472.81;;;2.98;75.72
36664;BME280;53333;51.976;20.144;2022-12-07T01:42:37;99457.91;;;2.95;75.71
36664;BME280;53333;51.976;20.144;2022-12-07T01:45:44;99464.84;;;2.99;75.54
36664;BME280;53333;51.976;20.144;2022-12-07T01:48:20;99465.03;;;2.93;75.46
36664;BME280;53333;51.976;20.144;2022-12-07T01:50:55;99460.72;;;2.90;75.76
36664;BME280;53333;51.976;20.144;2022-12-07T01:53:30;99451.91;;;2.90;75.63
36664;BME280;53333;51.976;20.144;2022-12-07T01:56:07;99463.41;;;2.89;75.60
36664;BME280;53333;51.976;20.144;2022-12-07T01:58:43;99458.22;;;2.86;75.67
36664;BME280;53333;51.976;20.144;2022-12-07T02:01:17;99452.03;;;2.85;75.66
36664;BME280;53333;51.976;20.144;2022-12-07T02:03:51;99441.50;;;2.85;75.56
36664;BME280;53333;51.976;20.144;2022-12-07T02:06:25;99440.69;;;2.83;75.74
36664;BME280;53333;51.976;20.144;2022-12-07T02:08:59;99438.97;;;2.81;75.67
36664;BME280;53333;51.976;20.144;2022-12-07T02:11:32;99436.47;;;2.78;75.73
36664;BME280;53333;51.976;20.144;2022-12-07T02:14:08;99437.41;;;2.75;75.66
36664;BME280;53333;51.976;20.144;2022-12-07T02:16:49;99434.75;;;2.75;75.87
36664;BME280;53333;51.976;20.144;2022-12-07T02:22:51;99433.91;;;2.75;75.78
36664;BME280;53333;51.976;20.144;2022-12-07T02:25:38;99433.09;;;2.71;75.77
36664;BME280;53333;51.976;20.144;2022-12-07T02:28:23;99434.84;;;2.72;75.86
36664;BME280;53333;51.976;20.144;2022-12-07T02:31:05;99428.69;;;2.73;75.83
36664;BME280;53333;51.976;20.144;2022-12-07T02:33:44;99426.84;;;2.75;75.70
36664;BME280;53333;51.976;20.144;2022-12-07T02:36:23;99425.06;;;2.76;75.86
36664;BME280;53333;51.976;20.144;2022-12-07T02:39:03;99427.69;;;2.76;75.89
36664;BME280;53333;51.976;20.144;2022-12-07T02:41:43;99429.34;;;2.80;75.72
36664;BME280;53333;51.976;20.144;2022-12-07T02:44:19;99432.84;;;2.80;75.70
36664;BME280;53333;51.976;20.144;2022-12-07T02:46:58;99416.94;;;2.83;75.68
36664;BME280;53333;51.976;20.144;2022-12-07T02:49:36;99417.84;;;2.82;75.76
36664;BME280;53333;51.976;20.144;2022-12-07T02:52:11;99412.56;;;2.82;75.59
36664;BME280;53333;51.976;20.144;2022-12-07T02:54:45;99412.56;;;2.82;75.70
36664;BME280;53333;51.976;20.144;2022-12-07T02:57:41;99403.75;;;2.83;75.70
36664;BME280;53333;51.976;20.144;2022-12-07T03:00:20;99410.00;;;2.79;75.73
36664;BME280;53333;51.976;20.144;2022-12-07T03:02:58;99404.72;;;2.79;75.71
36664;BME280;53333;51.976;20.144;2022-12-07T03:05:47;99408.22;;;2.81;75.72
36664;BME280;53333;51.976;20.144;2022-12-07T03:08:27;99409.06;;;2.82;75.79
36664;BME280;53333;51.976;20.144;2022-12-07T03:11:06;99406.50;;;2.79;75.62
36664;BME280;53333;51.976;20.144;2022-12-07T03:13:44;99411.75;;;2.80;75.67
36664;BME280;53333;51.976;20.144;2022-12-07T03:16:21;99409.13;;;2.80;75.54
36664;BME280;53333;51.976;20.144;2022-12-07T03:19:00;99408.25;;;2.80;75.64
36664;BME280;53333;51.976;20.144;2022-12-07T03:21:38;99407.38;;;2.79;75.62
36664;BME280;53333;51.976;20.144;2022-12-07T03:24:16;99400.44;;;2.77;75.68
36664;BME280;53333;51.976;20.144;2022-12-07T03:26:53;99405.66;;;2.78;75.65
36664;BME280;53333;51.976;20.144;2022-12-07T03:29:33;99405.66;;;2.78;75.88
36664;BME280;53333;51.976;20.144;2022-12-07T03:32:12;99399.53;;;2.78;75.75
36664;BME280;53333;51.976;20.144;2022-12-07T03:34:53;99395.91;;;2.80;75.81
36664;BME280;53333;51.976;20.144;2022-12-07T03:37:31;99400.34;;;2.80;75.81
36664;BME280;53333;51.976;20.144;2022-12-07T03:40:14;99389.78;;;2.80;75.56
36664;BME280;53333;51.976;20.144;2022-12-07T03:42:50;99395.91;;;2.80;75.65
36664;BME280;53333;51.976;20.144;2022-12-07T03:45:31;99385.31;;;2.82;75.65
36664;BME280;53333;51.976;20.144;2022-12-07T03:48:08;99389.72;;;2.83;75.49
36664;BME280;53333;51.976;20.144;2022-12-07T03:50:53;99382.66;;;2.83;75.60
36664;BME280;53333;51.976;20.144;2022-12-07T03:53:33;99386.09;;;2.85;75.51
36664;BME280;53333;51.976;20.144;2022-12-07T03:56:08;99386.09;;;2.85;75.41
36664;BME280;53333;51.976;20.144;2022-12-07T03:58:43;99386.06;;;2.87;75.49
36664;BME280;53333;51.976;20.144;2022-12-07T04:01:17;99382.50;;;2.88;75.37
36664;BME280;53333;51.976;20.144;2022-12-07T04:03:51;99378.09;;;2.88;75.40
36664;BME280;53333;51.976;20.144;2022-12-07T04:06:26;99380.72;;;2.88;75.19
36664;BME280;53333;51.976;20.144;2022-12-07T04:09:00;99381.66;;;2.87;75.32
36664;BME280;53333;51.976;20.144;2022-12-07T04:11:34;99379.88;;;2.88;75.30
36664;BME280;53333;51.976;20.144;2022-12-07T04:14:07;99386.94;;;2.87;75.38
36664;BME280;53333;51.976;20.144;2022-12-07T04:16:55;99378.13;;;2.87;75.39
36664;BME280;53333;51.976;20.144;2022-12-07T04:19:31;99388.69;;;2.87;75.39
36664;BME280;53333;51.976;20.144;2022-12-07T04:22:07;99379.09;;;2.84;75.47
36664;BME280;53333;51.976;20.144;2022-12-07T04:24:40;99377.41;;;2.82;75.34
36664;BME280;53333;51.976;20.144;2022-12-07T04:27:14;99381.84;;;2.81;75.31
36664;BME280;53333;51.976;20.144;2022-12-07T04:29:48;99370.44;;;2.79;75.34
36664;BME280;53333;51.976;20.144;2022-12-07T04:32:21;99381.00;;;2.79;75.37
36664;BME280;53333;51.976;20.144;2022-12-07T04:34:55;99374.06;;;2.77;75.36
36664;BME280;53333;51.976;20.144;2022-12-07T04:37:30;99374.00;;;2.78;75.31
36664;BME280;53333;51.976;20.144;2022-12-07T04:40:05;99370.44;;;2.79;75.18
36664;BME280;53333;51.976;20.144;2022-12-07T04:42:39;99374.88;;;2.79;75.37
36664;BME280;53333;51.976;20.144;2022-12-07T04:45:20;99372.22;;;2.79;75.17
36664;BME280;53333;51.976;20.144;2022-12-07T04:47:59;99361.72;;;2.77;75.19
36664;BME280;53333;51.976;20.144;2022-12-07T04:50:38;99360.00;;;2.76;75.28
36664;BME280;53333;51.976;20.144;2022-12-07T04:53:19;99360.91;;;2.75;75.31
36664;BME280;53333;51.976;20.144;2022-12-07T04:55:56;99360.06;;;2.75;75.14
36664;BME280;53333;51.976;20.144;2022-12-07T04:58:30;99351.31;;;2.72;75.19
36664;BME280;53333;51.976;20.144;2022-12-07T05:01:06;99355.69;;;2.73;75.15
36664;BME280;53333;51.976;20.144;2022-12-07T05:03:40;99354.75;;;2.76;75.19
36664;BME280;53333;51.976;20.144;2022-12-07T05:06:14;99350.38;;;2.75;75.02
36664;BME280;53333;51.976;20.144;2022-12-07T05:08:49;99353.91;;;2.74;75.00
36664;BME280;53333;51.976;20.144;2022-12-07T05:11:23;99351.31;;;2.72;75.04
36664;BME280;53333;51.976;20.144;2022-12-07T05:14:13;99349.63;;;2.70;75.06
36664;BME280;53333;51.976;20.144;2022-12-07T05:16:49;99349.69;;;2.68;75.33
36664;BME280;53333;51.976;20.144;2022-12-07T05:19:23;99339.19;;;2.67;75.12
36664;BME280;53333;51.976;20.144;2022-12-07T05:21:58;99337.44;;;2.66;75.23
36664;BME280;53333;51.976;20.144;2022-12-07T05:24:33;99347.09;;;2.67;75.19
36664;BME280;53333;51.976;20.144;2022-12-07T05:27:06;99348.00;;;2.66;75.35
36664;BME280;53333;51.976;20.144;2022-12-07T05:29:40;99347.91;;;2.69;75.22
36664;BME280;53333;51.976;20.144;2022-12-07T05:32:13;99347.00;;;2.70;75.09
36664;BME280;53333;51.976;20.144;2022-12-07T05:34:46;99344.38;;;2.70;75.13
36664;BME280;53333;51.976;20.144;2022-12-07T05:37:20;99349.72;;;2.67;75.08
36664;BME280;53333;51.976;20.144;2022-12-07T05:39:55;99340.06;;;2.66;75.11
36664;BME280;53333;51.976;20.144;2022-12-07T05:42:28;99341.94;;;2.62;75.17
36664;BME280;53333;51.976;20.144;2022-12-07T05:45:02;99349.03;;;2.60;75.01
36664;BME280;53333;51.976;20.144;2022-12-07T05:47:36;99351.38;;;2.69;74.91
36664;BME280;53333;51.976;20.144;2022-12-07T05:50:10;99340.34;;;2.57;74.92
36664;BME280;53333;51.976;20.144;2022-12-07T05:52:43;99351.78;;;2.57;75.06
36664;BME280;53333;51.976;20.144;2022-12-07T05:55:18;99350.03;;;2.56;75.12
36664;BME280;53333;51.976;20.144;2022-12-07T05:57:51;99357.94;;;2.56;75.20
36664;BME280;53333;51.976;20.144;2022-12-07T06:00:39;99350.16;;;2.51;75.33
36664;BME280;53333;51.976;20.144;2022-12-07T06:03:12;99352.88;;;2.48;75.28
36664;BME280;53333;51.976;20.144;2022-12-07T06:05:46;99353.81;;;2.47;75.28
36664;BME280;53333;51.976;20.144;2022-12-07T06:08:19;99348.53;;;2.47;75.26
36664;BME280;53333;51.976;20.144;2022-12-07T06:10:54;99351.16;;;2.47;75.37
36664;BME280;53333;51.976;20.144;2022-12-07T06:13:42;99353.72;;;2.49;75.30
36664;BME280;53333;51.976;20.144;2022-12-07T06:16:18;99345.78;;;2.50;75.60
36664;BME280;53333;51.976;20.144;2022-12-07T06:18:52;99348.41;;;2.50;75.49
36664;BME280;53333;51.976;20.144;2022-12-07T06:21:25;99340.47;;;2.52;75.64
36664;BME280;53333;51.976;20.144;2022-12-07T06:24:01;99345.69;;;2.53;75.70
36664;BME280;53333;51.976;20.144;2022-12-07T06:26:38;99354.50;;;2.54;75.69
36664;BME280;53333;51.976;20.144;2022-12-07T06:29:12;99353.56;;;2.55;75.63
36664;BME280;53333;51.976;20.144;2022-12-07T06:31:46;99347.41;;;2.56;75.73
36664;BME280;53333;51.976;20.144;2022-12-07T06:34:23;99355.25;;;2.58;75.94
36664;BME280;53333;51.976;20.144;2022-12-07T06:36:57;99352.63;;;2.58;75.87
36664;BME280;53333;51.976;20.144;2022-12-07T06:39:31;99352.59;;;2.59;75.86
36664;BME280;53333;51.976;20.144;2022-12-07T06:42:06;99361.34;;;2.60;75.76
36664;BME280;53333;51.976;20.144;2022-12-07T06:44:39;99358.72;;;2.60;75.80
36664;BME280;53333;51.976;20.144;2022-12-07T06:47:13;99358.72;;;2.60;76.00
36664;BME280;53333;51.976;20.144;2022-12-07T06:50:07;99352.53;;;2.61;76.08
36664;BME280;53333;51.976;20.144;2022-12-07T06:52:41;99353.47;;;2.58;76.02
36664;BME280;53333;51.976;20.144;2022-12-07T06:55:14;99350.03;;;2.56;76.10
36664;BME280;53333;51.976;20.144;2022-12-07T06:57:49;99349.13;;;2.57;76.27
36664;BME280;53333;51.976;20.144;2022-12-07T07:00:23;99357.03;;;2.57;76.43
36664;BME280;53333;51.976;20.144;2022-12-07T07:02:57;99349.03;;;2.60;76.24
36664;BME280;53333;51.976;20.144;2022-12-07T07:05:30;99357.75;;;2.62;76.28
36664;BME280;53333;51.976;20.144;2022-12-07T07:08:04;99363.00;;;2.64;76.34
36664;BME280;53333;51.976;20.144;2022-12-07T07:10:54;99361.13;;;2.67;76.43
36664;BME280;53333;51.976;20.144;2022-12-07T07:13:30;99354.97;;;2.68;76.36
36664;BME280;53333;51.976;20.144;2022-12-07T07:16:04;99357.56;;;2.70;76.53
36664;BME280;53333;51.976;20.144;2022-12-07T07:18:38;99353.09;;;2.72;76.36
36664;BME280;53333;51.976;20.144;2022-12-07T07:21:11;99352.19;;;2.73;76.35
36664;BME280;53333;51.976;20.144;2022-12-07T07:23:45;99348.53;;;2.77;76.51
36664;BME280;53333;51.976;20.144;2022-12-07T07:26:21;99354.56;;;2.81;76.54
36664;BME280;53333;51.976;20.144;2022-12-07T07:28:57;99364.94;;;2.87;76.36
36664;BME280;53333;51.976;20.144;2022-12-07T07:31:31;99360.50;;;2.89;76.58
36664;BME280;53333;51.976;20.144;2022-12-07T07:34:07;99353.44;;;2.89;76.50
36664;BME280;53333;51.976;20.144;2022-12-07T07:36:41;99363.81;;;2.96;76.62
36664;BME280;53333;51.976;20.144;2022-12-07T07:39:14;99364.53;;;3.01;76.46
36664;BME280;53333;51.976;20.144;2022-12-07T07:41:48;99347.72;;;3.05;76.31
36664;BME280;53333;51.976;20.144;2022-12-07T07:44:30;99366.06;;;3.09;76.36
36664;BME280;53333;51.976;20.144;2022-12-07T07:47:06;99363.25;;;3.14;76.17
36664;BME280;53333;51.976;20.144;2022-12-07T07:49:40;99361.44;;;3.16;76.13
36664;BME280;53333;51.976;20.144;2022-12-07T07:52:19;99367.53;;;3.18;76.18
36664;BME280;53333;51.976;20.144;2022-12-07T07:54:52;99365.78;;;3.17;75.94
36664;BME280;53333;51.976;20.144;2022-12-07T07:57:26;99373.69;;;3.17;76.07
36664;BME280;53333;51.976;20.144;2022-12-07T08:00:03;99368.44;;;3.17;75.97
36664;BME280;53333;51.976;20.144;2022-12-07T08:02:43;99375.44;;;3.18;75.74
36664;BME280;53333;51.976;20.144;2022-12-07T08:05:18;99377.22;;;3.18;75.90
36664;BME280;53333;51.976;20.144;2022-12-07T08:07:52;99376.34;;;3.17;75.70
36664;BME280;53333;51.976;20.144;2022-12-07T08:10:25;99389.53;;;3.17;75.80
36664;BME280;53333;51.976;20.144;2022-12-07T08:12:59;99389.44;;;3.20;75.68
36664;BME280;53333;51.976;20.144;2022-12-07T08:15:47;99392.94;;;3.22;75.46
36664;BME280;53333;51.976;20.144;2022-12-07T08:18:21;99386.66;;;3.25;75.34
36664;BME280;53333;51.976;20.144;2022-12-07T08:20:59;99387.47;;;3.27;75.36
36664;BME280;53333;51.976;20.144;2022-12-07T08:23:33;99383.09;;;3.27;75.40
36664;BME280;53333;51.976;20.144;2022-12-07T08:26:13;99393.50;;;3.32;75.34
36664;BME280;53333;51.976;20.144;2022-12-07T08:28:47;99399.53;;;3.36;75.26
36664;BME280;53333;51.976;20.144;2022-12-07T08:31:23;99392.44;;;3.38;75.19
36664;BME280;53333;51.976;20.144;2022-12-07T08:33:56;99390.53;;;3.41;75.10
36664;BME280;53333;51.976;20.144;2022-12-07T08:36:30;99387.88;;;3.43;74.83
36664;BME280;53333;51.976;20.144;2022-12-07T08:39:04;99394.88;;;3.44;74.79
36664;BME280;53333;51.976;20.144;2022-12-07T08:41:58;99394.84;;;3.45;74.82
36664;BME280;53333;51.976;20.144;2022-12-07T08:44:31;99388.69;;;3.45;74.53
36664;BME280;53333;51.976;20.144;2022-12-07T08:47:07;99386.97;;;3.44;74.70
36664;BME280;53333;51.976;20.144;2022-12-07T08:49:45;99392.25;;;3.44;74.66
36664;BME280;53333;51.976;20.144;2022-12-07T08:52:21;99395.75;;;3.44;74.60
36664;BME280;53333;51.976;20.144;2022-12-07T08:54:55;99388.75;;;3.43;74.62
36664;BME280;53333;51.976;20.144;2022-12-07T08:57:28;99387.53;;;3.54;74.54
36664;BME280;53333;51.976;20.144;2022-12-07T09:00:03;99386.00;;;3.47;74.47
36664;BME280;53333;51.976;20.144;2022-12-07T09:02:39;99381.69;;;3.44;74.39
36664;BME280;53333;51.976;20.144;2022-12-07T09:05:13;99381.63;;;3.45;74.23
36664;BME280;53333;51.976;20.144;2022-12-07T09:07:51;99378.13;;;3.45;74.25
36664;BME280;53333;51.976;20.144;2022-12-07T09:10:27;99378.09;;;3.47;74.13
36664;BME280;53333;51.976;20.144;2022-12-07T09:13:01;99372.81;;;3.47;74.21
36664;BME280;53333;51.976;20.144;2022-12-07T09:15:34;99379.00;;;3.45;74.18
36664;BME280;53333;51.976;20.144;2022-12-07T09:18:12;99368.47;;;3.44;74.11
36664;BME280;53333;51.976;20.144;2022-12-07T09:20:46;99365.84;;;3.44;74.13
36664;BME280;53333;51.976;20.144;2022-12-07T09:23:19;99357.97;;;3.42;74.04
36664;BME280;53333;51.976;20.144;2022-12-07T09:25:53;99359.75;;;3.42;74.00
36664;BME280;53333;51.976;20.144;2022-12-07T09:28:27;99361.41;;;3.44;73.98
36664;BME280;53333;51.976;20.144;2022-12-07T09:31:02;99354.31;;;3.47;73.87
36664;BME280;53333;51.976;20.144;2022-12-07T09:33:58;99359.50;;;3.50;73.66
36664;BME280;53333;51.976;20.144;2022-12-07T09:36:33;99355.94;;;3.51;73.96
36664;BME280;53333;51.976;20.144;2022-12-07T09:39:06;99361.69;;;3.63;73.67
36664;BME280;53333;51.976;20.144;2022-12-07T09:41:41;99355.03;;;3.52;73.51
36664;BME280;53333;51.976;20.144;2022-12-07T09:44:20;99354.22;;;3.50;73.70
36664;BME280;53333;51.976;20.144;2022-12-07T09:46:55;99359.47;;;3.51;73.78
36664;BME280;53333;51.976;20.144;2022-12-07T09:49:31;99359.50;;;3.50;73.72
36664;BME280;53333;51.976;20.144;2022-12-07T09:52:18;99363.00;;;3.50;73.72
36664;BME280;53333;51.976;20.144;2022-12-07T09:54:52;99362.25;;;3.47;73.55
36664;BME280;53333;51.976;20.144;2022-12-07T09:57:29;99367.56;;;3.45;73.53
36664;BME280;53333;51.976;20.144;2022-12-07T10:00:06;99365.94;;;3.41;73.75
36664;BME280;53333;51.976;20.144;2022-12-07T10:02:47;99362.38;;;3.42;73.65
36664;BME280;53333;51.976;20.144;2022-12-07T10:05:27;99355.22;;;3.45;73.66
36664;BME280;53333;51.976;20.144;2022-12-07T10:08:02;99357.78;;;3.49;73.60
36664;BME280;53333;51.976;20.144;2022-12-07T10:10:36;99352.03;;;3.62;73.38
36664;BME280;53333;51.976;20.144;2022-12-07T10:13:12;99356.72;;;3.54;73.41
36664;BME280;53333;51.976;20.144;2022-12-07T10:15:49;99347.97;;;3.52;73.46
36664;BME280;53333;51.976;20.144;2022-12-07T10:18:29;99351.44;;;3.54;73.48
36664;BME280;53333;51.976;20.144;2022-12-07T10:21:12;99337.31;;;3.55;73.52
36664;BME280;53333;51.976;20.144;2022-12-07T10:24:00;99341.69;;;3.56;73.29
36664;BME280;53333;51.976;20.144;2022-12-07T10:26:36;99339.19;;;3.52;73.33
36664;BME280;53333;51.976;20.144;2022-12-07T10:29:15;99335.66;;;3.53;73.55
36664;BME280;53333;51.976;20.144;2022-12-07T10:31:54;99330.31;;;3.54;73.46
36664;BME280;53333;51.976;20.144;2022-12-07T10:34:30;99333.84;;;3.53;73.31
36664;BME280;53333;51.976;20.144;2022-12-07T10:37:18;99335.53;;;3.56;73.35
36664;BME280;53333;51.976;20.144;2022-12-07T10:39:53;99340.00;;;3.54;73.37
36664;BME280;53333;51.976;20.144;2022-12-07T10:42:28;99335.66;;;3.53;73.57
36664;BME280;53333;51.976;20.144;2022-12-07T10:45:12;99333.84;;;3.53;73.43
36664;BME280;53333;51.976;20.144;2022-12-07T10:47:50;99331.25;;;3.52;73.34
36664;BME280;53333;51.976;20.144;2022-12-07T10:50:58;99330.19;;;3.57;73.39
36664;BME280;53333;51.976;20.144;2022-12-07T10:53:53;99333.72;;;3.58;73.49
36664;BME280;53333;51.976;20.144;2022-12-07T10:57:01;99333.56;;;3.62;73.47
36664;BME280;53333;51.976;20.144;2022-12-07T11:00:08;99335.00;;;3.71;73.30
36664;BME280;53333;51.976;20.144;2022-12-07T11:03:12;99339.28;;;3.75;73.38
36664;BME280;53333;51.976;20.144;2022-12-07T11:05:56;99333.13;;;3.75;73.25
36664;BME280;53333;51.976;20.144;2022-12-07T11:08:47;99328.66;;;3.77;73.37
36664;BME280;53333;51.976;20.144;2022-12-07T11:11:32;99329.69;;;3.73;73.31
36664;BME280;53333;51.976;20.144;2022-12-07T11:14:16;99324.50;;;3.70;73.44
36664;BME280;53333;51.976;20.144;2022-12-07T11:16:56;99321.06;;;3.68;73.56
36664;BME280;53333;51.976;20.144;2022-12-07T11:19:46;99315.78;;;3.68;73.42
36664;BME280;53333;51.976;20.144;2022-12-07T11:22:30;99315.97;;;3.61;73.37
36664;BME280;53333;51.976;20.144;2022-12-07T11:25:18;99312.56;;;3.58;73.28
36664;BME280;53333;51.976;20.144;2022-12-07T11:28:14;99320.50;;;3.58;73.39
36664;BME280;53333;51.976;20.144;2022-12-07T11:30:56;99314.47;;;3.54;73.37
36664;BME280;53333;51.976;20.144;2022-12-07T11:33:39;99312.72;;;3.53;73.33
36664;BME280;53333;51.976;20.144;2022-12-07T11:36:30;99305.75;;;3.51;73.25
36664;BME280;53333;51.976;20.144;2022-12-07T11:39:10;99301.56;;;3.45;73.15
36664;BME280;53333;51.976;20.144;2022-12-07T11:41:48;99299.03;;;3.42;73.16
36664;BME280;53333;51.976;20.144;2022-12-07T11:44:32;99302.38;;;3.47;73.02
36664;BME280;53333;51.976;20.144;2022-12-07T11:47:10;99295.34;;;3.46;73.14
36664;BME280;53333;51.976;20.144;2022-12-07T11:49:55;99299.72;;;3.47;72.98
36664;BME280;53333;51.976;20.144;2022-12-07T11:52:39;99291.00;;;3.45;73.05
36664;BME280;53333;51.976;20.144;2022-12-07T11:55:21;99291.09;;;3.42;73.06
36664;BME280;53333;51.976;20.144;2022-12-07T11:58:02;99286.78;;;3.39;72.96
36664;BME280;53333;51.976;20.144;2022-12-07T12:00:39;99294.75;;;3.38;73.12
36664;BME280;53333;51.976;20.144;2022-12-07T12:03:17;99291.25;;;3.37;73.06
36664;BME280;53333;51.976;20.144;2022-12-07T12:05:56;99294.75;;;3.38;72.86
36664;BME280;53333;51.976;20.144;2022-12-07T12:08:32;99287.66;;;3.40;73.02
36664;BME280;53333;51.976;20.144;2022-12-07T12:11:40;99282.25;;;3.43;72.73
36664;BME280;53333;51.976;20.144;2022-12-07T12:14:39;99278.66;;;3.45;72.82
36664;BME280;53333;51.976;20.144;2022-12-07T12:20:40;99272.47;;;3.47;72.43
36664;BME280;53333;51.976;20.144;2022-12-07T12:23:18;99268.94;;;3.46;72.49
36664;BME280;53333;51.976;20.144;2022-12-07T12:25:54;99278.50;;;3.50;72.42
36664;BME280;53333;51.976;20.144;2022-12-07T12:28:30;99278.50;;;3.50;72.29
36664;BME280;53333;51.976;20.144;2022-12-07T12:31:11;99279.34;;;3.51;72.06
36664;BME280;53333;51.976;20.144;2022-12-07T12:33:48;99274.06;;;3.51;72.21
36664;BME280;53333;51.976;20.144;2022-12-07T12:36:44;99263.47;;;3.52;72.10
36664;BME280;53333;51.976;20.144;2022-12-07T12:39:19;99264.53;;;3.47;71.86
36664;BME280;53333;51.976;20.144;2022-12-07T12:41:55;99262.84;;;3.44;71.87
36664;BME280;53333;51.976;20.144;2022-12-07T12:45:03;99274.22;;;3.46;71.68
36664;BME280;53333;51.976;20.144;2022-12-07T12:47:56;99269.19;;;3.40;71.58
36664;BME280;53333;51.976;20.144;2022-12-07T12:50:31;99260.53;;;3.35;71.55
36664;BME280;53333;51.976;20.144;2022-12-07T12:53:16;99264.16;;;3.32;71.39
36664;BME280;53333;51.976;20.144;2022-12-07T12:56:21;99252.69;;;3.32;71.48
36664;BME280;53333;51.976;20.144;2022-12-07T12:59:23;99257.22;;;3.28;71.29
36664;BME280;53333;51.976;20.144;2022-12-07T13:02:12;99254.75;;;3.23;71.20
36664;BME280;53333;51.976;20.144;2022-12-07T13:04:52;99257.53;;;3.19;71.12
36664;BME280;53333;51.976;20.144;2022-12-07T13:07:52;99259.16;;;3.23;71.08
36664;BME280;53333;51.976;20.144;2022-12-07T13:10:40;99253.94;;;3.21;71.04
36664;BME280;53333;51.976;20.144;2022-12-07T13:13:30;99252.09;;;3.23;71.01
36664;BME280;53333;51.976;20.144;2022-12-07T13:22:54;99251.03;;;3.29;70.65
36664;BME280;53333;51.976;20.144;2022-12-07T13:25:41;99255.66;;;3.22;70.61
36664;BME280;53333;51.976;20.144;2022-12-07T13:28:18;99250.53;;;3.18;70.50
36664;BME280;53333;51.976;20.144;2022-12-07T13:31:01;99247.06;;;3.16;70.66
36664;BME280;53333;51.976;20.144;2022-12-07T13:33:36;99252.41;;;3.14;70.76
36664;BME280;53333;51.976;20.144;2022-12-07T13:36:17;99249.81;;;3.13;70.73
36664;BME280;53333;51.976;20.144;2022-12-07T13:38:54;99248.19;;;3.08;70.72
36664;BME280;53333;51.976;20.144;2022-12-07T13:41:30;99249.97;;;3.08;71.09
36664;BME280;53333;51.976;20.144;2022-12-07T13:44:11;99254.28;;;3.11;70.94
36664;BME280;53333;51.976;20.144;2022-12-07T13:46:50;99258.59;;;3.13;70.91
36664;BME280;53333;51.976;20.144;2022-12-07T13:49:27;99253.31;;;3.13;70.85
36664;BME280;53333;51.976;20.144;2022-12-07T13:52:15;99258.59;;;3.13;70.99
36664;BME280;53333;51.976;20.144;2022-12-07T13:54:56;99252.50;;;3.11;71.14
36664;BME280;53333;51.976;20.144;2022-12-07T13:57:33;99250.84;;;3.08;71.11
36664;BME280;53333;51.976;20.144;2022-12-07T14:00:15;99244.81;;;3.05;71.23
36664;BME280;53333;51.976;20.144;2022-12-07T14:02:55;99250.19;;;3.02;71.13
36664;BME280;53333;51.976;20.144;2022-12-07T14:05:30;99243.22;;;2.99;71.44
36664;BME280;53333;51.976;20.144;2022-12-07T14:08:06;99245.84;;;2.99;71.57
36664;BME280;53333;51.976;20.144;2022-12-07T14:10:55;99238.03;;;2.96;71.41
36664;BME280;53333;51.976;20.144;2022-12-07T14:13:33;99245.91;;;2.98;71.69